sensor_id;sensor_type;location;lat;lon;timestamp;P1;durP1;ratioP1;P2;durP2;ratioP2
57335;SDS011;43171;50.994;18.204;2023-06-10T00:13:58;13.70;;;11.10;;
57335;SDS011;43171;50.994;18.204;2023-06-10T00:23:42;16.00;;;13.50;;
57335;SDS011;43171;50.994;18.204;2023-06-10T00:33:26;21.80;;;13.50;;
57335;SDS011;43171;50.994;18.204;2023-06-10T00:43:08;17.70;;;12.80;;
57335;SDS011;43171;50.994;18.204;2023-06-10T00:52:52;9.90;;;8.90;;
57335;SDS011;43171;50.994;18.204;2023-06-10T01:02:40;11.80;;;10.40;;
57335;SDS011;43171;50.994;18.204;2023-06-10T01:12:49;16.80;;;13.40;;
57335;SDS011;43171;50.994;18.204;2023-06-10T01:22:49;18.30;;;12.00;;
57335;SDS011;43171;50.994;18.204;2023-06-10T01:32:43;24.60;;;15.50;;
57335;SDS011;43171;50.994;18.204;2023-06-10T01:42:31;23.60;;;13.60;;
57335;SDS011;43171;50.994;18.204;2023-06-10T01:52:14;14.50;;;11.30;;
57335;SDS011;43171;50.994;18.204;2023-06-10T02:01:57;19.80;;;14.10;;
57335;SDS011;43171;50.994;18.204;2023-06-10T02:11:39;16.30;;;14.50;;
57335;SDS011;43171;50.994;18.204;2023-06-10T02:21:21;19.90;;;14.20;;
57335;SDS011;43171;50.994;18.204;2023-06-10T02:31:03;29.10;;;15.80;;
57335;SDS011;43171;50.994;18.204;2023-06-10T02:40:46;18.20;;;15.00;;
57335;SDS011;43171;50.994;18.204;2023-06-10T02:50:28;15.50;;;13.60;;
57335;SDS011;43171;50.994;18.204;2023-06-10T03:00:11;15.30;;;12.80;;
57335;SDS011;43171;50.994;18.204;2023-06-10T03:09:56;15.50;;;11.80;;
57335;SDS011;43171;50.994;18.204;2023-06-10T03:19:38;12.70;;;11.50;;
57335;SDS011;43171;50.994;18.204;2023-06-10T03:29:35;14.10;;;12.10;;
57335;SDS011;43171;50.994;18.204;2023-06-10T03:39:17;11.60;;;9.50;;
57335;SDS011;43171;50.994;18.204;2023-06-10T03:48:59;10.60;;;9.50;;
57335;SDS011;43171;50.994;18.204;2023-06-10T03:58:45;12.10;;;10.70;;
57335;SDS011;43171;50.994;18.204;2023-06-10T04:08:30;13.00;;;11.70;;
57335;SDS011;43171;50.994;18.204;2023-06-10T04:18:13;14.50;;;11.60;;
57335;SDS011;43171;50.994;18.204;2023-06-10T04:25:30;23.20;;;18.40;;
57335;SDS011;43171;50.994;18.204;2023-06-10T04:35:13;15.60;;;11.70;;
57335;SDS011;43171;50.994;18.204;2023-06-10T04:44:57;14.20;;;10.30;;
57335;SDS011;43171;50.994;18.204;2023-06-10T04:52:14;20.40;;;16.20;;
57335;SDS011;43171;50.994;18.204;2023-06-10T05:01:58;7.20;;;6.50;;
57335;SDS011;43171;50.994;18.204;2023-06-10T05:11:41;11.20;;;10.10;;
57335;SDS011;43171;50.994;18.204;2023-06-10T05:21:23;10.70;;;9.20;;
57335;SDS011;43171;50.994;18.204;2023-06-10T05:26:15;13.10;;;11.70;;
57335;SDS011;43171;50.994;18.204;2023-06-10T05:35:57;8.60;;;6.70;;
57335;SDS011;43171;50.994;18.204;2023-06-10T05:45:42;7.70;;;6.90;;
57335;SDS011;43171;50.994;18.204;2023-06-10T05:55:28;6.10;;;5.60;;
57335;SDS011;43171;50.994;18.204;2023-06-10T06:05:17;11.50;;;6.60;;
57335;SDS011;43171;50.994;18.204;2023-06-10T06:12:34;11.80;;;9.60;;
57335;SDS011;43171;50.994;18.204;2023-06-10T06:22:17;10.60;;;7.20;;
57335;SDS011;43171;50.994;18.204;2023-06-10T06:32:03;2.50;;;2.00;;
57335;SDS011;43171;50.994;18.204;2023-06-10T06:41:45;11.90;;;6.20;;
57335;SDS011;43171;50.994;18.204;2023-06-10T06:51:27;6.00;;;5.50;;
57335;SDS011;43171;50.994;18.204;2023-06-10T07:01:12;6.00;;;4.90;;
57335;SDS011;43171;50.994;18.204;2023-06-10T07:10:56;5.00;;;4.60;;
57335;SDS011;43171;50.994;18.204;2023-06-10T07:20:37;6.10;;;5.50;;
57335;SDS011;43171;50.994;18.204;2023-06-10T07:30:19;9.90;;;6.80;;
57335;SDS011;43171;50.994;18.204;2023-06-10T07:47:20;8.70;;;7.10;;
57335;SDS011;43171;50.994;18.204;2023-06-10T07:57:03;5.30;;;4.20;;
57335;SDS011;43171;50.994;18.204;2023-06-10T08:06:46;11.20;;;6.00;;
57335;SDS011;43171;50.994;18.204;2023-06-10T08:16:28;8.20;;;6.90;;
57335;SDS011;43171;50.994;18.204;2023-06-10T08:26:11;7.10;;;6.50;;
57335;SDS011;43171;50.994;18.204;2023-06-10T08:35:53;9.80;;;4.30;;
57335;SDS011;43171;50.994;18.204;2023-06-10T08:45:37;3.10;;;2.80;;
57335;SDS011;43171;50.994;18.204;2023-06-10T08:55:30;4.50;;;4.10;;
57335;SDS011;43171;50.994;18.204;2023-06-10T09:05:18;3.80;;;3.50;;
57335;SDS011;43171;50.994;18.204;2023-06-10T09:15:03;4.10;;;3.90;;
57335;SDS011;43171;50.994;18.204;2023-06-10T09:24:52;4.60;;;3.60;;
57335;SDS011;43171;50.994;18.204;2023-06-10T09:35:22;4.50;;;4.10;;
57335;SDS011;43171;50.994;18.204;2023-06-10T09:45:09;3.30;;;3.10;;
57335;SDS011;43171;50.994;18.204;2023-06-10T09:54:53;4.60;;;4.10;;
57335;SDS011;43171;50.994;18.204;2023-06-10T10:04:41;4.10;;;3.00;;
57335;SDS011;43171;50.994;18.204;2023-06-10T10:14:47;3.50;;;3.20;;
57335;SDS011;43171;50.994;18.204;2023-06-10T10:24:46;4.90;;;4.50;;
57335;SDS011;43171;50.994;18.204;2023-06-10T10:34:49;6.10;;;5.60;;
57335;SDS011;43171;50.994;18.204;2023-06-10T10:44:37;7.20;;;6.00;;
57335;SDS011;43171;50.994;18.204;2023-06-10T10:54:30;7.90;;;6.70;;
57335;SDS011;43171;50.994;18.204;2023-06-10T11:04:59;6.30;;;5.80;;
57335;SDS011;43171;50.994;18.204;2023-06-10T11:23:08;12.10;;;5.60;;
57335;SDS011;43171;50.994;18.204;2023-06-10T11:25:39;8.10;;;6.70;;
57335;SDS011;43171;50.994;18.204;2023-06-10T11:35:42;13.30;;;8.70;;
57335;SDS011;43171;50.994;18.204;2023-06-10T11:45:26;6.30;;;5.70;;
57335;SDS011;43171;50.994;18.204;2023-06-10T11:55:45;5.00;;;4.50;;
57335;SDS011;43171;50.994;18.204;2023-06-10T12:15:45;3.20;;;3.00;;
57335;SDS011;43171;50.994;18.204;2023-06-10T12:25:51;3.10;;;2.90;;
57335;SDS011;43171;50.994;18.204;2023-06-10T12:35:49;3.00;;;2.70;;
57335;SDS011;43171;50.994;18.204;2023-06-10T12:45:39;3.30;;;2.80;;
57335;SDS011;43171;50.994;18.204;2023-06-10T12:55:28;5.00;;;2.20;;
57335;SDS011;43171;50.994;18.204;2023-06-10T13:05:12;2.00;;;1.80;;
57335;SDS011;43171;50.994;18.204;2023-06-10T13:14:54;3.60;;;3.10;;
57335;SDS011;43171;50.994;18.204;2023-06-10T13:24:40;4.80;;;2.50;;
57335;SDS011;43171;50.994;18.204;2023-06-10T13:34:23;3.50;;;3.10;;
57335;SDS011;43171;50.994;18.204;2023-06-10T13:44:06;2.30;;;2.10;;
57335;SDS011;43171;50.994;18.204;2023-06-10T13:53:48;2.90;;;2.60;;
57335;SDS011;43171;50.994;18.204;2023-06-10T14:03:32;3.90;;;3.10;;
57335;SDS011;43171;50.994;18.204;2023-06-10T14:13:16;3.10;;;2.30;;
57335;SDS011;43171;50.994;18.204;2023-06-10T14:22:59;6.20;;;2.80;;
57335;SDS011;43171;50.994;18.204;2023-06-10T14:32:41;3.20;;;2.60;;
57335;SDS011;43171;50.994;18.204;2023-06-10T14:42:24;3.80;;;2.70;;
57335;SDS011;43171;50.994;18.204;2023-06-10T14:52:07;3.30;;;2.20;;
57335;SDS011;43171;50.994;18.204;2023-06-10T15:01:52;2.60;;;2.40;;
57335;SDS011;43171;50.994;18.204;2023-06-10T15:11:34;3.30;;;3.00;;
57335;SDS011;43171;50.994;18.204;2023-06-10T15:21:16;3.80;;;2.30;;
57335;SDS011;43171;50.994;18.204;2023-06-10T15:30:59;3.00;;;2.60;;
57335;SDS011;43171;50.994;18.204;2023-06-10T15:40:43;3.60;;;2.90;;
57335;SDS011;43171;50.994;18.204;2023-06-10T15:57:42;3.70;;;2.60;;
57335;SDS011;43171;50.994;18.204;2023-06-10T16:07:24;2.40;;;2.20;;
57335;SDS011;43171;50.994;18.204;2023-06-10T16:17:06;2.20;;;2.00;;
57335;SDS011;43171;50.994;18.204;2023-06-10T16:26:49;2.10;;;1.90;;
57335;SDS011;43171;50.994;18.204;2023-06-10T16:36:32;3.10;;;2.80;;
57335;SDS011;43171;50.994;18.204;2023-06-10T16:46:14;3.60;;;2.70;;
57335;SDS011;43171;50.994;18.204;2023-06-10T16:55:58;1.40;;;1.30;;
57335;SDS011;43171;50.994;18.204;2023-06-10T17:05:41;2.80;;;2.50;;
57335;SDS011;43171;50.994;18.204;2023-06-10T17:15:23;3.70;;;2.80;;
57335;SDS011;43171;50.994;18.204;2023-06-10T17:25:06;7.40;;;3.70;;
57335;SDS011;43171;50.994;18.204;2023-06-10T17:34:49;3.70;;;3.40;;
57335;SDS011;43171;50.994;18.204;2023-06-10T17:44:32;11.00;;;3.90;;
57335;SDS011;43171;50.994;18.204;2023-06-10T17:54:15;3.40;;;3.10;;
57335;SDS011;43171;50.994;18.204;2023-06-10T18:04:02;3.70;;;2.30;;
57335;SDS011;43171;50.994;18.204;2023-06-10T18:13:47;3.70;;;3.00;;
57335;SDS011;43171;50.994;18.204;2023-06-10T18:23:32;3.40;;;3.00;;
57335;SDS011;43171;50.994;18.204;2023-06-10T18:33:24;3.50;;;2.60;;
57335;SDS011;43171;50.994;18.204;2023-06-10T18:43:08;3.20;;;2.70;;
57335;SDS011;43171;50.994;18.204;2023-06-10T18:52:51;3.00;;;2.30;;
57335;SDS011;43171;50.994;18.204;2023-06-10T19:02:34;5.30;;;4.70;;
57335;SDS011;43171;50.994;18.204;2023-06-10T19:12:17;3.70;;;3.40;;
57335;SDS011;43171;50.994;18.204;2023-06-10T19:22:01;6.10;;;4.90;;
57335;SDS011;43171;50.994;18.204;2023-06-10T19:31:43;6.90;;;5.20;;
57335;SDS011;43171;50.994;18.204;2023-06-10T19:41:25;8.70;;;5.40;;
57335;SDS011;43171;50.994;18.204;2023-06-10T19:51:17;12.90;;;6.00;;
57335;SDS011;43171;50.994;18.204;2023-06-10T20:01:10;5.50;;;5.00;;
57335;SDS011;43171;50.994;18.204;2023-06-10T20:10:53;2.70;;;2.50;;
57335;SDS011;43171;50.994;18.204;2023-06-10T20:20:35;13.60;;;2.70;;
57335;SDS011;43171;50.994;18.204;2023-06-10T20:30:17;9.20;;;6.60;;
57335;SDS011;43171;50.994;18.204;2023-06-10T20:40:00;6.90;;;5.10;;
57335;SDS011;43171;50.994;18.204;2023-06-10T20:49:42;12.30;;;5.60;;
57335;SDS011;43171;50.994;18.204;2023-06-10T20:59:24;9.80;;;7.30;;
57335;SDS011;43171;50.994;18.204;2023-06-10T21:09:07;7.80;;;6.70;;
57335;SDS011;43171;50.994;18.204;2023-06-10T21:18:49;6.90;;;6.10;;
57335;SDS011;43171;50.994;18.204;2023-06-10T21:28:32;7.70;;;5.30;;
57335;SDS011;43171;50.994;18.204;2023-06-10T21:38:14;6.90;;;4.90;;
57335;SDS011;43171;50.994;18.204;2023-06-10T21:47:57;9.10;;;7.90;;
57335;SDS011;43171;50.994;18.204;2023-06-10T21:57:39;5.40;;;4.90;;
57335;SDS011;43171;50.994;18.204;2023-06-10T22:07:30;11.70;;;6.80;;
57335;SDS011;43171;50.994;18.204;2023-06-10T22:17:13;7.00;;;6.10;;
57335;SDS011;43171;50.994;18.204;2023-06-10T22:26:58;8.30;;;6.10;;
57335;SDS011;43171;50.994;18.204;2023-06-10T22:36:40;7.60;;;6.80;;
57335;SDS011;43171;50.994;18.204;2023-06-10T22:46:31;7.80;;;6.50;;
57335;SDS011;43171;50.994;18.204;2023-06-10T22:56:14;9.90;;;8.00;;
57335;SDS011;43171;50.994;18.204;2023-06-10T23:13:12;8.10;;;7.30;;
57335;SDS011;43171;50.994;18.204;2023-06-10T23:23:00;11.10;;;7.70;;
57335;SDS011;43171;50.994;18.204;2023-06-10T23:32:43;9.70;;;8.00;;
57335;SDS011;43171;50.994;18.204;2023-06-10T23:42:31;11.50;;;8.40;;
57335;SDS011;43171;50.994;18.204;2023-06-10T23:52:14;9.40;;;8.40;;
57335;SDS011;43171;50.994;18.204;2023-06-10T23:59:31;15.10;;;12.90;;
